Test XHTML 1.0 Strict Page for WU-History Testing
Station Historical Data
 
Daily Summary for April 24, 2014 Units:  English    Metric   Both
« Previous Day
Next Day »
Daily Weekly Monthly Yearly Custom
  Current: High: Low: Average:
Temperature: 57.5 °F 63.4 °F 49.9 °F 53.7 °F
Dew Point: 39.0 °F 54.1 °F 38.7 °F 47.2 °F
Humidity: 50% 92% 50% 80%
Wind Speed: 8.1mph 28.8mph 0.0mph 10.2mph
Wind Gust: 8.1mph 28.8mph - -
WindNNE - - SW
Pressure: 29.89 in 29.89 in 29.61 in -
Precipitation: 0.00 in      
Historical Graphs
 
 
Tabular Data for April 24, 2014
Time Temperature Dew Point Pressure Wind Wind Speed Wind Gust Humidity Rainfall Rate (Hourly) Conditions
00:01 63.4 °F 50.6 °F 29.61 in NW 25.3 mph 25.3 mph 63% 0.00 in CLR
00:06 62.6 °F 50.7 °F 29.62 in WNW 19.6 mph 19.6 mph 65% 0.00 in CLR
00:11 61.7 °F 50.6 °F 29.63 in NW 10.0 mph 10.0 mph 67% 0.00 in CLR
00:16 60.9 °F 50.7 °F 29.66 in West 23.0 mph 23.0 mph 69% 0.00 in CLR
00:21 60.1 °F 51.0 °F 29.66 in WNW 25.3 mph 25.3 mph 72% 0.00 in CLR
00:26 59.1 °F 52.6 °F 29.67 in NW 18.4 mph 18.4 mph 79% 0.00 in CLR
00:31 57.7 °F 52.9 °F 29.68 in WNW 15.0 mph 15.0 mph 84% 0.00 in CLR
00:36 56.9 °F 53.4 °F 29.67 in WNW 11.5 mph 11.5 mph 88% 0.00 in CLR
00:41 56.7 °F 53.5 °F 29.68 in WNW 11.5 mph 11.5 mph 89% 0.00 in CLR
00:46 56.7 °F 53.8 °F 29.68 in West 8.1 mph 8.1 mph 90% 0.00 in CLR
00:51 56.6 °F 54.0 °F 29.67 in West 11.5 mph 11.5 mph 91% 0.00 in CLR
00:56 56.6 °F 54.0 °F 29.68 in WSW 6.0 mph 6.0 mph 91% 0.00 in CLR
01:01 56.7 °F 54.1 °F 29.69 in WNW 15.0 mph 15.0 mph 91% 0.00 in CLR
01:06 56.7 °F 54.1 °F 29.69 in WNW 6.9 mph 6.9 mph 91% 0.00 in OVC
01:11 56.3 °F 52.2 °F 29.68 in NNW 19.6 mph 19.6 mph 86% 0.00 in OVC
01:16 55.7 °F 50.9 °F 29.68 in NNE 24.2 mph 24.2 mph 84% 0.00 in OVC
01:21 55.3 °F 50.2 °F 29.67 in NNW 27.6 mph 27.6 mph 83% 0.00 in OVC
01:26 54.8 °F 50.4 °F 29.67 in NNE 28.8 mph 28.8 mph 85% 0.00 in OVC
01:31 54.5 °F 50.4 °F 29.67 in East 26.5 mph 26.5 mph 86% 0.00 in OVC
01:36 54.4 °F 50.0 °F 29.67 in NNE 26.5 mph 26.5 mph 85% 0.00 in OVC
01:41 54.2 °F 49.8 °F 29.68 in NE 26.5 mph 26.5 mph 85% 0.00 in OVC
01:46 54.1 °F 49.4 °F 29.68 in NNE 25.3 mph 25.3 mph 84% 0.00 in OVC
01:51 53.8 °F 49.1 °F 29.68 in NNE 19.6 mph 19.6 mph 84% 0.00 in OVC
01:56 53.5 °F 49.1 °F 29.69 in NNW 17.3 mph 17.3 mph 85% 0.00 in OVC
02:01 53.2 °F 49.4 °F 29.71 in NNE 13.8 mph 13.8 mph 87% 0.00 in OVC
02:06 53.0 °F 49.2 °F 29.72 in North 17.0 mph 17.0 mph 87% 0.00 in OVC
02:11 53.0 °F 49.2 °F 29.71 in NE 19.6 mph 19.6 mph 87% 0.00 in OVC
02:16 52.9 °F 49.1 °F 29.72 in ENE 20.0 mph 20.0 mph 87% 0.00 in OVC
02:21 52.8 °F 49.3 °F 29.71 in North 15.0 mph 15.0 mph 88% 0.00 in OVC
02:26 52.6 °F 49.1 °F 29.71 in NNE 18.4 mph 18.4 mph 88% 0.00 in OVC
02:31 52.5 °F 49.4 °F 29.72 in NNW 19.6 mph 19.6 mph 89% 0.00 in OVC
02:36 52.5 °F 49.4 °F 29.72 in NNE 17.3 mph 17.3 mph 89% 0.00 in OVC
02:41 52.5 °F 49.7 °F 29.73 in NNW 11.5 mph 11.5 mph 90% 0.00 in OVC
02:46 52.4 °F 49.6 °F 29.73 in NW 13.8 mph 13.8 mph 90% 0.00 in OVC
02:52 52.4 °F 49.8 °F 29.71 in North 16.1 mph 16.1 mph 91% 0.00 in OVC
02:57 52.4 °F 49.8 °F 29.71 in NNW 10.4 mph 10.4 mph 91% 0.00 in OVC
03:02 52.5 °F 49.9 °F 29.71 in NE 15.0 mph 15.0 mph 91% 0.00 in OVC
03:07 52.6 °F 50.0 °F 29.71 in NNW 13.8 mph 13.8 mph 91% 0.00 in OVC
03:12 52.8 °F 50.5 °F 29.71 in North 12.0 mph 12.0 mph 92% 0.00 in OVC
03:17 53.1 °F 50.5 °F 29.73 in NNE 11.5 mph 11.5 mph 91% 0.00 in OVC
03:22 53.2 °F 50.6 °F 29.74 in NNE 4.6 mph 4.6 mph 91% 0.00 in OVC
03:27 53.3 °F 50.7 °F 29.74 in NE 9.2 mph 9.2 mph 91% 0.00 in OVC
03:32 53.3 °F 50.7 °F 29.74 in North 10.4 mph 10.4 mph 91% 0.00 in OVC
03:37 53.4 °F 50.5 °F 29.74 in NNE 10.4 mph 10.4 mph 90% 0.00 in OVC
03:42 53.4 °F 50.5 °F 29.74 in NNW 6.9 mph 6.9 mph 90% 0.00 in OVC
03:47 53.4 °F 50.5 °F 29.74 in NW 8.1 mph 8.1 mph 90% 0.00 in OVC
03:52 53.5 °F 50.6 °F 29.75 in NNW 8.1 mph 8.1 mph 90% 0.00 in OVC
03:57 53.5 °F 50.3 °F 29.74 in WNW 11.5 mph 11.5 mph 89% 0.00 in OVC
04:02 53.5 °F 50.0 °F 29.74 in North 10.4 mph 10.4 mph 88% 0.00 in OVC
04:07 53.7 °F 49.3 °F 29.72 in NNE 19.6 mph 19.6 mph 85% 0.00 in OVC
04:12 53.7 °F 49.3 °F 29.74 in NNE 15.0 mph 15.0 mph 85% 0.00 in OVC
04:17 53.4 °F 49.0 °F 29.74 in NNE 10.4 mph 10.4 mph 85% 0.00 in OVC
04:22 53.3 °F 48.9 °F 29.73 in North 8.1 mph 8.1 mph 85% 0.00 in OVC
04:27 53.1 °F 48.4 °F 29.73 in North 13.0 mph 13.0 mph 84% 0.00 in OVC
04:32 53.0 °F 48.6 °F 29.72 in NNW 12.7 mph 12.7 mph 85% 0.00 in OVC
04:37 52.7 °F 48.3 °F 29.72 in North 5.8 mph 5.8 mph 85% 0.00 in OVC
04:42 52.6 °F 48.5 °F 29.72 in North 4.6 mph 4.6 mph 86% 0.00 in OVC
04:47 52.4 °F 48.3 °F 29.72 in NE 2.3 mph 2.3 mph 86% 0.00 in OVC
04:52 52.2 °F 48.1 °F 29.72 in North 2.3 mph 2.3 mph 86% 0.00 in OVC
04:57 51.9 °F 48.2 °F 29.73 in North 3.5 mph 3.5 mph 87% 0.00 in OVC
05:02 51.7 °F 48.0 °F 29.73 in WNW 1.2 mph 1.2 mph 87% 0.00 in OVC
05:07 51.6 °F 47.5 °F 29.73 in NW 5.8 mph 5.8 mph 86% 0.00 in CLR
05:12 51.5 °F 47.1 °F 29.73 in NNE 9.2 mph 9.2 mph 85% 0.00 in CLR
05:17 51.4 °F 47.0 °F 29.74 in NW 3.5 mph 3.5 mph 85% 0.00 in CLR
05:22 51.4 °F 47.0 °F 29.74 in WNW 9.2 mph 9.2 mph 85% 0.00 in CLR
05:27 51.3 °F 46.9 °F 29.74 in WNW 5.8 mph 5.8 mph 85% 0.00 in CLR
05:32 51.2 °F 47.2 °F 29.74 in WNW 6.9 mph 6.9 mph 86% 0.00 in CLR
05:37 51.1 °F 47.1 °F 29.74 in NNW 2.3 mph 2.3 mph 86% 0.00 in CLR
05:42 51.0 °F 46.6 °F 29.73 in SE 4.6 mph 4.6 mph 85% 0.00 in CLR
05:47 50.8 °F 46.5 °F 29.73 in NE 3.5 mph 3.5 mph 85% 0.00 in CLR
05:52 50.7 °F 46.4 °F 29.74 in WNW 3.5 mph 3.5 mph 85% 0.00 in CLR
05:57 50.6 °F 46.3 °F 29.74 in NNW 2.3 mph 2.3 mph 85% 0.00 in CLR
06:02 50.5 °F 46.2 °F 29.74 in WNW 3.5 mph 3.5 mph 85% 0.00 in CLR
06:07 50.3 °F 46.0 °F 29.74 in WNW 1.0 mph   85% 0.00 in FEW
06:12 50.0 °F 46.0 °F 29.73 in Calm     86% 0.00 in FEW
06:17 49.9 °F 45.9 °F 29.74 in NNW 2.0 mph 2.0 mph 86% 0.00 in FEW
06:22 50.0 °F 46.3 °F 29.75 in NW 2.0 mph 2.0 mph 87% 0.00 in FEW
06:27 50.1 °F 46.4 °F 29.76 in South 5.0 mph 5.0 mph 87% 0.00 in FEW
06:32 50.5 °F 46.8 °F 29.76 in WNW 9.2 mph 9.2 mph 87% 0.00 in FEW
06:37 50.9 °F 47.2 °F 29.76 in WNW 8.1 mph 8.1 mph 87% 0.00 in FEW
06:42 51.1 °F 47.1 °F 29.75 in West 8.1 mph 8.1 mph 86% 0.00 in FEW
06:47 51.2 °F 47.2 °F 29.76 in WNW 11.5 mph 11.5 mph 86% 0.00 in FEW
06:52 51.2 °F 47.2 °F 29.75 in NNE 4.6 mph 4.6 mph 86% 0.00 in FEW
06:57 51.3 °F 46.9 °F 29.75 in NNW 5.8 mph 5.8 mph 85% 0.00 in FEW
07:02 51.4 °F 46.7 °F 29.75 in WNW 2.3 mph 2.3 mph 84% 0.00 in FEW
07:07 51.6 °F 46.3 °F 29.75 in NW 3.5 mph 3.5 mph 82% 0.00 in SCT
07:12 51.8 °F 46.2 °F 29.75 in NE 5.0 mph 5.0 mph 81% 0.00 in SCT
07:17 52.1 °F 45.8 °F 29.75 in NNE 13.8 mph 13.8 mph 79% 0.00 in SCT
07:22 52.3 °F 45.6 °F 29.76 in NNW 9.2 mph 9.2 mph 78% 0.00 in SCT
07:27 52.6 °F 45.9 °F 29.76 in NW 5.8 mph 5.8 mph 78% 0.00 in SCT
07:32 52.8 °F 46.1 °F 29.76 in ENE 3.5 mph 3.5 mph 78% 0.00 in SCT
07:37 52.7 °F 46.4 °F 29.77 in SSE 4.6 mph 4.6 mph 79% 0.00 in SCT
07:42 52.5 °F 46.2 °F 29.77 in SSW 3.5 mph 3.5 mph 79% 0.00 in SCT
07:47 52.4 °F 46.1 °F 29.77 in North 5.8 mph 5.8 mph 79% 0.00 in SCT
07:52 52.4 °F 46.1 °F 29.77 in North 3.5 mph 3.5 mph 79% 0.00 in SCT
07:57 52.4 °F 46.1 °F 29.78 in West 3.5 mph 3.5 mph 79% 0.00 in SCT
08:02 52.4 °F 46.1 °F 29.79 in West 6.0 mph 6.0 mph 79% 0.00 in SCT
08:07 52.4 °F 46.1 °F 29.79 in NE 8.1 mph 8.1 mph 79% 0.00 in FEW
08:12 52.4 °F 46.1 °F 29.79 in NNW 4.6 mph 4.6 mph 79% 0.00 in FEW
08:17 52.4 °F 46.4 °F 29.79 in NE 4.6 mph 4.6 mph 80% 0.00 in FEW
08:22 52.4 °F 45.7 °F 29.80 in SE 8.1 mph 8.1 mph 78% 0.00 in FEW
08:27 52.5 °F 45.5 °F 29.79 in NW 8.1 mph 8.1 mph 77% 0.00 in FEW
08:32 52.5 °F 44.8 °F 29.80 in NW 9.2 mph 9.2 mph 75% 0.00 in FEW
08:37 52.7 °F 45.0 °F 29.80 in NW 3.5 mph 3.5 mph 75% 0.00 in FEW
08:42 52.9 °F 44.8 °F 29.80 in NNW 4.6 mph 4.6 mph 74% 0.00 in FEW
08:47 53.2 °F 44.8 °F 29.80 in NE 5.8 mph 5.8 mph 73% 0.00 in FEW
08:52 53.4 °F 44.2 °F 29.80 in NNW 9.2 mph 9.2 mph 71% 0.00 in FEW
08:57 53.5 °F 44.3 °F 29.81 in NE 4.6 mph 4.6 mph 71% 0.00 in FEW
09:02 53.6 °F 44.4 °F 29.82 in WNW 3.5 mph 3.5 mph 71% 0.00 in FEW
09:07 53.7 °F 44.5 °F 29.83 in WSW 11.5 mph 11.5 mph 71% 0.00 in OVC
09:12 53.8 °F 44.2 °F 29.83 in West 10.4 mph 10.4 mph 70% 0.00 in OVC
09:17 53.9 °F 44.3 °F 29.84 in WNW 8.1 mph 8.1 mph 70% 0.00 in OVC
09:22 53.9 °F 44.3 °F 29.84 in WNW 5.8 mph 5.8 mph 70% 0.00 in OVC
09:27 53.9 °F 44.0 °F 29.84 in WNW 10.4 mph 10.4 mph 69% 0.00 in OVC
09:32 53.9 °F 44.0 °F 29.85 in NW 10.4 mph 10.4 mph 69% 0.00 in OVC
09:37 54.0 °F 43.7 °F 29.85 in WNW 10.4 mph 10.4 mph 68% 0.00 in OVC
09:42 54.0 °F 43.3 °F 29.85 in WSW 10.4 mph 10.4 mph 67% 0.00 in OVC
09:47 54.0 °F 42.9 °F 29.85 in WNW 11.0 mph 11.0 mph 66% 0.00 in OVC
09:52 54.1 °F 43.0 °F 29.86 in NNW 9.2 mph 9.2 mph 66% 0.00 in OVC
09:57 54.3 °F 42.4 °F 29.86 in WNW 8.1 mph 8.1 mph 64% 0.00 in OVC
10:02 54.5 °F 42.2 °F 29.87 in North 13.8 mph 13.8 mph 63% 0.00 in OVC
10:07 54.8 °F 42.4 °F 29.87 in NNW 5.8 mph 5.8 mph 63% 0.00 in OVC
10:12 55.1 °F 41.5 °F 29.87 in ENE 5.8 mph 5.8 mph 60% 0.00 in OVC
10:17 55.3 °F 40.8 °F 29.87 in NNE 8.0 mph 8.0 mph 58% 0.00 in OVC
10:22 55.7 °F 39.3 °F 29.87 in NE 6.9 mph 6.9 mph 54% 0.00 in OVC
10:27 56.0 °F 40.1 °F 29.88 in North 10.4 mph 10.4 mph 55% 0.00 in OVC
10:32 56.5 °F 40.5 °F 29.88 in NNW 6.9 mph 6.9 mph 55% 0.00 in OVC
10:37 56.7 °F 39.7 °F 29.88 in NE 13.8 mph 13.8 mph 53% 0.00 in OVC
10:42 56.8 °F 39.4 °F 29.88 in NW 10.4 mph 10.4 mph 52% 0.00 in OVC
10:47 56.9 °F 39.4 °F 29.89 in WNW 9.0 mph 9.0 mph 52% 0.00 in OVC
10:52 57.0 °F 39.0 °F 29.89 in NW 8.1 mph 8.1 mph 51% 0.00 in OVC
10:57 57.1 °F 39.6 °F 29.89 in West 10.4 mph 10.4 mph 52% 0.00 in OVC
11:02 57.2 °F 38.7 °F 29.89 in NNW 11.5 mph 11.5 mph 50% 0.00 in OVC
11:07 57.5 °F 39.0 °F 29.89 in NNE 8.1 mph 8.1 mph 50% 0.00 in FEW
Hays Kansas WeatherReturn to Top
Ryan********************www.hayskansasweather.com********************
Compliments of Weather Underground